createdAt,value
2018-11-27T00:00:28.562Z,23.67
2018-11-27T00:02:59.575Z,25.53
2018-11-27T00:05:28.671Z,24.00
2018-11-27T00:07:57.416Z,26.57
2018-11-27T00:10:26.474Z,23.10
2018-11-27T00:12:55.416Z,23.67
2018-11-27T00:15:24.205Z,24.93
2018-11-27T00:17:52.915Z,26.93
2018-11-27T00:20:21.487Z,25.70
2018-11-27T00:22:50.355Z,29.50
2018-11-27T00:25:19.413Z,25.87
2018-11-27T00:27:48.572Z,25.13
2018-11-27T00:30:18.685Z,24.50
2018-11-27T00:32:47.275Z,24.10
2018-11-27T00:35:17.610Z,24.40
2018-11-27T00:37:46.425Z,25.77
2018-11-27T00:40:16.630Z,24.97
2018-11-27T00:42:45.455Z,26.70
2018-11-27T00:45:18.362Z,27.73
2018-11-27T00:47:48.067Z,25.37
2018-11-27T00:50:17.724Z,29.27
2018-11-27T00:52:46.619Z,24.13
2018-11-27T00:55:16.295Z,27.57
2018-11-27T00:57:45.972Z,26.53
2018-11-27T01:00:18.089Z,27.80
2018-11-27T01:02:47.070Z,27.03
2018-11-27T01:05:16.841Z,28.80
2018-11-27T01:07:45.977Z,32.23
2018-11-27T01:10:23.194Z,32.00
2018-11-27T01:12:52.065Z,37.43
2018-11-27T01:15:21.190Z,35.20
2018-11-27T01:17:51.033Z,30.50
2018-11-27T01:20:21.766Z,34.53
2018-11-27T01:22:50.559Z,31.80
2018-11-27T01:25:19.190Z,33.50
2018-11-27T01:27:48.257Z,31.50
2018-11-27T01:30:18.974Z,35.07
2018-11-27T01:32:48.143Z,38.20
2018-11-27T01:35:18.801Z,33.83
2018-11-27T01:37:48.464Z,31.67
2018-11-27T01:40:21.212Z,30.60
2018-11-27T01:42:52.577Z,37.20
2018-11-27T01:45:21.830Z,33.67
2018-11-27T01:47:50.929Z,31.00
2018-11-27T01:50:20.091Z,34.43
2018-11-27T01:52:49.246Z,31.90
2018-11-27T01:55:19.040Z,37.10
2018-11-27T01:57:47.805Z,30.43
2018-11-27T02:00:21.824Z,33.13
2018-11-27T02:02:51.092Z,33.20
2018-11-27T02:05:19.926Z,34.97
2018-11-27T02:07:48.723Z,35.43
2018-11-27T02:10:17.442Z,37.10
2018-11-27T02:12:47.202Z,35.87
2018-11-27T02:15:20.899Z,31.80
2018-11-27T02:17:49.560Z,33.10
2018-11-27T02:20:18.476Z,35.50
2018-11-27T02:22:47.756Z,34.23
2018-11-27T02:25:21.571Z,31.37
2018-11-27T02:27:50.155Z,28.37
2018-11-27T02:30:19.978Z,29.10
2018-11-27T02:32:48.624Z,28.60
2018-11-27T02:35:21.565Z,27.97
2018-11-27T02:37:51.827Z,30.60
2018-11-27T02:40:21.003Z,27.30
2018-11-27T02:42:49.715Z,25.90
2018-11-27T02:45:23.478Z,21.07
2018-11-27T02:47:52.906Z,22.20
2018-11-27T02:50:22.828Z,20.93
2018-11-27T02:52:51.442Z,22.57
2018-11-27T02:55:22.208Z,18.97
2018-11-27T02:57:51.021Z,20.40
2018-11-27T03:00:24.701Z,22.73
2018-11-27T03:02:53.775Z,21.90
2018-11-27T03:05:28.553Z,21.57
2018-11-27T03:07:57.483Z,21.83
2018-11-27T03:10:26.351Z,21.73
2018-11-27T03:12:55.249Z,21.87
2018-11-27T03:15:24.085Z,21.67
2018-11-27T03:17:52.748Z,22.47
2018-11-27T03:20:21.385Z,23.07
2018-11-27T03:22:49.971Z,25.67
2018-11-27T03:25:20.740Z,21.00
2018-11-27T03:27:50.983Z,21.27
2018-11-27T03:30:26.857Z,19.13
2018-11-27T03:32:55.594Z,21.33
2018-11-27T03:35:25.341Z,21.93
2018-11-27T03:37:54.422Z,18.30
2018-11-27T03:40:25.334Z,22.60
2018-11-27T03:42:54.292Z,19.97
2018-11-27T03:45:23.557Z,17.07
2018-11-27T03:47:52.457Z,21.07
2018-11-27T03:50:29.993Z,18.43
2018-11-27T03:52:58.699Z,20.33
2018-11-27T03:55:27.249Z,19.70
2018-11-27T03:57:55.790Z,20.97
2018-11-27T04:00:28.726Z,23.13
2018-11-27T04:03:01.442Z,18.07
2018-11-27T04:05:30.298Z,18.37
2018-11-27T04:07:58.923Z,16.40
2018-11-27T04:10:27.681Z,18.50
2018-11-27T04:12:56.593Z,16.80
2018-11-27T04:15:25.710Z,15.83
2018-11-27T04:17:54.479Z,18.33
2018-11-27T04:20:23.181Z,17.93
2018-11-27T04:22:51.963Z,20.53
2018-11-27T04:25:20.907Z,19.90
2018-11-27T04:27:49.512Z,23.00
2018-11-27T04:30:19.691Z,19.27
2018-11-27T04:32:48.663Z,19.57
2018-11-27T04:35:18.446Z,20.50
2018-11-27T04:37:47.576Z,20.87
2018-11-27T04:40:17.143Z,22.67
2018-11-27T04:42:45.740Z,21.30
2018-11-27T04:45:20.683Z,21.27
2018-11-27T04:47:49.371Z,19.33
2018-11-27T04:50:18.872Z,18.37
2018-11-27T04:52:47.876Z,18.87
2018-11-27T04:55:17.922Z,20.67
2018-11-27T04:57:47.608Z,17.50
2018-11-27T05:00:19.268Z,20.93
2018-11-27T05:02:48.673Z,19.43
2018-11-27T05:05:17.808Z,21.07
2018-11-27T05:07:46.791Z,18.27
2018-11-27T05:10:16.866Z,21.30
2018-11-27T05:12:45.832Z,20.00
2018-11-27T05:15:20.292Z,20.63
2018-11-27T05:17:50.221Z,21.73
2018-11-27T05:20:19.152Z,23.07
2018-11-27T05:22:48.038Z,22.20
2018-11-27T05:25:17.983Z,20.13
2018-11-27T05:27:47.695Z,18.13
2018-11-27T05:30:18.383Z,21.50
2018-11-27T05:32:47.147Z,19.90
2018-11-27T05:35:19.155Z,22.93
2018-11-27T05:37:48.762Z,23.57
2018-11-27T05:40:18.710Z,21.60
2018-11-27T05:42:48.413Z,22.77
2018-11-27T05:45:18.320Z,23.97
2018-11-27T05:47:47.160Z,24.67
2018-11-27T05:50:16.876Z,26.37
2018-11-27T05:52:45.661Z,23.43
2018-11-27T05:55:14.958Z,25.23
2018-11-27T05:57:44.708Z,27.20
2018-11-27T06:00:17.665Z,26.63
2018-11-27T06:02:47.358Z,23.63
2018-11-27T06:05:18.247Z,22.53
2018-11-27T06:07:47.087Z,26.07
2018-11-27T06:10:16.960Z,23.30
2018-11-27T06:12:45.941Z,26.20
2018-11-27T06:15:15.810Z,26.93
2018-11-27T06:17:44.732Z,23.37
2018-11-27T06:20:14.901Z,22.07
2018-11-27T06:22:43.767Z,23.00
2018-11-27T06:25:16.965Z,23.50
2018-11-27T06:27:46.465Z,24.67
2018-11-27T06:30:19.587Z,22.50
2018-11-27T06:32:48.259Z,23.67
2018-11-27T06:35:24.218Z,23.20
2018-11-27T06:37:53.031Z,20.60
2018-11-27T06:40:22.977Z,22.13
2018-11-27T06:42:51.752Z,23.53
2018-11-27T06:45:20.864Z,22.43
2018-11-27T06:47:50.523Z,23.10
2018-11-27T06:50:19.941Z,25.00
2018-11-27T06:52:48.811Z,23.53
2018-11-27T06:55:18.511Z,22.70
2018-11-27T06:57:47.207Z,21.37
2018-11-27T07:00:23.863Z,24.03
2018-11-27T07:02:52.738Z,19.97
2018-11-27T07:05:21.712Z,23.07
2018-11-27T07:07:50.347Z,20.83
2018-11-27T07:10:25.159Z,21.60
2018-11-27T07:12:56.326Z,22.10
2018-11-27T07:15:25.426Z,27.63
2018-11-27T07:17:54.007Z,20.60
2018-11-27T07:20:22.732Z,26.83
2018-11-27T07:22:51.393Z,25.70
2018-11-27T07:25:20.120Z,26.30
2018-11-27T07:27:52.393Z,22.33
2018-11-27T07:30:23.430Z,22.63
2018-11-27T07:32:52.812Z,21.97
2018-11-27T07:35:21.750Z,20.47
2018-11-27T07:37:50.665Z,22.40
2018-11-27T07:40:21.450Z,20.27
2018-11-27T07:42:52.976Z,20.87
2018-11-27T07:45:22.188Z,26.03
2018-11-27T07:47:50.986Z,23.30
2018-11-27T07:50:20.073Z,21.83
2018-11-27T07:52:49.216Z,21.40
2018-11-27T07:55:18.974Z,18.93
2018-11-27T07:57:47.729Z,19.10
2018-11-27T08:00:18.539Z,23.83
2018-11-27T08:02:49.506Z,21.27
2018-11-27T08:05:22.511Z,23.53
2018-11-27T08:07:53.397Z,21.07
2018-11-27T08:10:24.076Z,25.27
2018-11-27T08:12:52.995Z,23.10
2018-11-27T08:15:25.050Z,23.00
2018-11-27T08:17:53.809Z,21.43
2018-11-27T08:20:26.732Z,23.57
2018-11-27T08:22:55.436Z,22.17
2018-11-27T08:25:24.176Z,23.03
2018-11-27T08:27:52.933Z,22.30
2018-11-27T08:30:22.524Z,25.13
2018-11-27T08:32:51.873Z,22.10
2018-11-27T08:35:22.772Z,21.10
2018-11-27T08:37:52.710Z,21.53
2018-11-27T08:40:22.611Z,24.20
2018-11-27T08:42:51.552Z,24.30
2018-11-27T08:45:21.728Z,20.53
2018-11-27T08:47:51.586Z,18.80
2018-11-27T08:50:21.909Z,19.73
2018-11-27T08:52:51.998Z,18.23
2018-11-27T08:55:39.675Z,21.27
2018-11-27T08:58:15.214Z,22.47
2018-11-27T09:00:43.967Z,19.57
2018-11-27T09:03:12.777Z,22.40
2018-11-27T09:05:41.774Z,24.20
2018-11-27T09:08:10.773Z,23.17
2018-11-27T09:10:39.534Z,21.20
2018-11-27T09:13:08.519Z,20.60
2018-11-27T09:15:37.674Z,19.37
2018-11-27T09:18:13.565Z,18.03
2018-11-27T09:20:42.308Z,21.70
2018-11-27T09:23:11.254Z,17.97
2018-11-27T09:25:40.206Z,19.37
2018-11-27T09:28:09.384Z,21.53
2018-11-27T09:30:38.040Z,16.43
2018-11-27T09:33:07.727Z,19.70
2018-11-27T09:35:36.928Z,18.73
2018-11-27T09:38:07.276Z,18.23
2018-11-27T09:40:36.359Z,17.17
2018-11-27T09:43:05.970Z,18.73
2018-11-27T09:45:35.384Z,18.57
2018-11-27T09:48:04.112Z,21.70
2018-11-27T09:50:33.025Z,18.03
2018-11-27T09:53:01.843Z,20.03
2018-11-27T09:55:30.687Z,20.37
2018-11-27T09:57:59.558Z,25.20
2018-11-27T10:00:30.004Z,21.67
2018-11-27T10:03:02.109Z,21.67
2018-11-27T10:05:30.586Z,21.20
2018-11-27T10:07:59.515Z,21.87
2018-11-27T10:10:28.132Z,22.03
2018-11-27T10:12:57.191Z,24.93
2018-11-27T10:15:27.059Z,24.20
2018-11-27T10:17:57.192Z,20.90
2018-11-27T10:20:28.293Z,22.27
2018-11-27T10:22:57.471Z,23.43
2018-11-27T10:25:26.312Z,22.33
2018-11-27T10:27:55.448Z,23.90
2018-11-27T10:30:25.669Z,24.43
2018-11-27T10:32:56.108Z,24.53
2018-11-27T10:35:30.046Z,24.87
2018-11-27T10:37:58.606Z,23.50
2018-11-27T10:40:27.482Z,19.27
2018-11-27T10:42:56.266Z,21.07
2018-11-27T10:45:24.980Z,20.73
2018-11-27T10:47:55.816Z,21.20
2018-11-27T10:50:24.924Z,21.70
2018-11-27T10:52:56.458Z,21.73
2018-11-27T10:55:25.370Z,19.33
2018-11-27T10:57:54.025Z,20.40
2018-11-27T11:00:29.947Z,20.33
2018-11-27T11:04:06.064Z,19.70
2018-11-27T11:06:34.831Z,18.93
2018-11-27T11:09:06.596Z,21.57
2018-11-27T11:11:35.751Z,19.10
2018-11-27T11:14:04.608Z,19.73
2018-11-27T11:16:33.398Z,20.80
2018-11-27T11:19:02.436Z,21.07
2018-11-27T11:21:31.547Z,21.73
2018-11-27T11:24:00.296Z,21.77
2018-11-27T11:26:29.951Z,21.23
2018-11-27T11:28:58.769Z,22.77
2018-11-27T11:31:27.442Z,20.63
2018-11-27T11:33:56.621Z,20.90
2018-11-27T11:36:25.411Z,22.17
2018-11-27T11:38:54.249Z,20.63
2018-11-27T11:41:22.956Z,16.97
2018-11-27T11:43:51.820Z,18.50
2018-11-27T11:46:20.782Z,19.97
2018-11-27T11:48:49.957Z,20.33
2018-11-27T11:51:18.585Z,23.33
2018-11-27T11:53:47.504Z,17.63
2018-11-27T11:56:16.306Z,21.47
2018-11-27T11:58:44.973Z,19.27
2018-11-27T12:01:13.871Z,18.90
2018-11-27T12:03:42.766Z,19.10
2018-11-27T12:06:11.601Z,19.83
2018-11-27T12:08:40.404Z,19.93
2018-11-27T12:11:09.001Z,16.53
2018-11-27T12:13:37.812Z,16.87
2018-11-27T12:16:06.626Z,17.17
2018-11-27T12:18:35.546Z,18.50
2018-11-27T12:21:04.267Z,15.77
2018-11-27T12:23:33.061Z,12.73
2018-11-27T12:26:01.905Z,14.53
2018-11-27T12:28:30.749Z,13.97
2018-11-27T12:30:59.410Z,13.03
2018-11-27T12:33:28.507Z,13.67
2018-11-27T12:35:57.254Z,11.20
2018-11-27T12:38:26.270Z,13.47
2018-11-27T12:40:55.166Z,16.07
2018-11-27T12:43:23.870Z,13.27
2018-11-27T12:45:52.501Z,13.50
2018-11-27T12:48:21.157Z,13.03
2018-11-27T12:50:50.330Z,14.40
2018-11-27T12:53:19.495Z,13.40
2018-11-27T12:55:49.417Z,11.53
2018-11-27T12:58:18.296Z,13.23
2018-11-27T13:00:47.207Z,12.97
2018-11-27T13:03:16.365Z,16.00
2018-11-27T13:05:45.981Z,13.93
2018-11-27T13:08:18.869Z,14.23
2018-11-27T13:10:48.002Z,14.40
2018-11-27T13:13:16.947Z,17.07
2018-11-27T13:15:46.025Z,13.77
2018-11-27T13:18:14.977Z,15.30
2018-11-27T13:20:43.801Z,15.10
2018-11-27T13:23:12.667Z,13.07
2018-11-27T13:25:41.472Z,15.70
2018-11-27T13:28:11.802Z,15.33
2018-11-27T13:30:46.517Z,14.33
2018-11-27T13:33:26.890Z,12.47
2018-11-27T13:35:55.910Z,17.00
2018-11-27T13:38:26.084Z,16.80
2018-11-27T13:40:53.554Z,14.07
2018-11-27T13:43:23.680Z,15.93
2018-11-27T13:45:52.716Z,16.93
2018-11-27T13:48:21.831Z,17.27
2018-11-27T13:50:51.020Z,15.80
2018-11-27T13:53:19.793Z,14.43
2018-11-27T13:55:48.886Z,15.83
2018-11-27T13:58:17.755Z,14.17
2018-11-27T14:00:46.565Z,15.80
2018-11-27T14:03:15.447Z,16.40
2018-11-27T14:05:44.400Z,16.83
2018-11-27T14:08:14.368Z,18.37
2018-11-27T14:10:42.969Z,17.07
2018-11-27T14:13:12.124Z,14.90
2018-11-27T14:15:41.042Z,16.90
2018-11-27T14:18:10.159Z,17.90
2018-11-27T14:20:38.868Z,17.60
2018-11-27T14:23:08.009Z,19.77
2018-11-27T14:25:37.241Z,16.77
2018-11-27T14:28:06.146Z,14.90
2018-11-27T14:30:35.080Z,17.00
2018-11-27T14:33:03.751Z,18.40
2018-11-27T14:35:32.291Z,18.80
2018-11-27T14:38:01.756Z,19.17
2018-11-27T14:40:30.333Z,21.30
2018-11-27T14:42:58.920Z,18.53
2018-11-27T14:45:27.925Z,18.50
2018-11-27T14:47:58.997Z,17.03
2018-11-27T14:50:27.552Z,17.60
2018-11-27T14:52:56.298Z,21.27
2018-11-27T14:55:26.201Z,17.47
2018-11-27T14:57:55.084Z,20.73
2018-11-27T15:00:24.585Z,15.63
2018-11-27T15:02:53.651Z,18.60
2018-11-27T15:05:28.798Z,15.10
2018-11-27T15:07:57.361Z,20.63
2018-11-27T15:10:25.925Z,20.60
2018-11-27T15:12:54.462Z,17.33
2018-11-27T15:15:22.971Z,18.13
2018-11-27T15:17:52.848Z,24.17
2018-11-27T15:20:30.356Z,26.90
2018-11-27T15:22:59.060Z,25.50
2018-11-27T15:25:27.830Z,22.53
2018-11-27T15:27:56.785Z,24.30
2018-11-27T15:30:27.636Z,22.40
2018-11-27T15:32:58.310Z,22.13
2018-11-27T15:35:27.313Z,27.80
2018-11-27T15:37:56.256Z,23.07
2018-11-27T15:40:27.018Z,21.53
2018-11-27T15:42:55.736Z,24.20
2018-11-27T15:45:25.934Z,22.00
2018-11-27T15:47:54.741Z,21.77
2018-11-27T15:50:23.421Z,23.63
2018-11-27T15:52:52.266Z,21.73
2018-11-27T15:55:23.787Z,22.27
2018-11-27T15:57:54.083Z,18.97
2018-11-27T16:00:23.186Z,21.43
2018-11-27T16:02:52.022Z,24.93
2018-11-27T16:05:21.031Z,20.47
2018-11-27T16:07:49.902Z,27.17
2018-11-27T16:10:19.506Z,26.40
2018-11-27T16:12:48.535Z,24.30
2018-11-27T16:15:20.436Z,26.20
2018-11-27T16:17:50.254Z,25.13
2018-11-27T16:20:21.254Z,27.33
2018-11-27T16:22:51.089Z,28.10
2018-11-27T16:25:20.961Z,27.40
2018-11-27T16:27:49.746Z,22.87
2018-11-27T16:30:28.308Z,26.73
2018-11-27T16:32:57.482Z,27.60
2018-11-27T16:35:26.230Z,22.73
2018-11-27T16:37:58.565Z,23.13
2018-11-27T16:40:33.208Z,24.97
2018-11-27T16:43:02.555Z,29.97
2018-11-27T16:45:31.168Z,22.20
2018-11-27T16:47:59.938Z,21.43
2018-11-27T16:50:28.640Z,24.70
2018-11-27T16:52:57.437Z,26.77
2018-11-27T16:55:26.051Z,26.13
2018-11-27T16:57:55.115Z,26.23
2018-11-27T17:00:26.740Z,21.90
2018-11-27T17:02:57.455Z,21.23
2018-11-27T17:05:27.641Z,22.37
2018-11-27T17:07:56.296Z,21.73
2018-11-27T17:10:25.354Z,25.87
2018-11-27T17:12:55.492Z,20.33
2018-11-27T17:15:25.625Z,25.87
2018-11-27T17:17:54.512Z,23.47
2018-11-27T17:20:25.501Z,24.70
2018-11-27T17:22:54.827Z,24.57
2018-11-27T17:25:23.560Z,24.50
2018-11-27T17:27:52.956Z,23.97
2018-11-27T17:30:30.846Z,24.07
2018-11-27T17:32:59.962Z,28.00
2018-11-27T17:35:29.042Z,28.43
2018-11-27T17:37:57.991Z,29.23
2018-11-27T17:40:26.925Z,30.07
2018-11-27T17:42:55.805Z,32.13
2018-11-27T17:45:25.051Z,33.23
2018-11-27T17:47:53.994Z,35.30
2018-11-27T17:50:23.195Z,31.60
2018-11-27T17:52:52.020Z,30.53
2018-11-27T17:55:21.207Z,32.60
2018-11-27T17:57:50.308Z,32.97
2018-11-27T18:00:22.436Z,27.80
2018-11-27T18:02:52.485Z,28.93
2018-11-27T18:05:21.181Z,25.17
2018-11-27T18:07:50.107Z,30.33
2018-11-27T18:10:18.779Z,30.97
2018-11-27T18:12:47.887Z,31.43
2018-11-27T18:15:18.140Z,31.87
2018-11-27T18:17:46.806Z,31.47
2018-11-27T18:20:15.681Z,33.23
2018-11-27T18:22:44.606Z,30.03
2018-11-27T18:25:14.446Z,34.03
2018-11-27T18:27:44.270Z,34.20
2018-11-27T18:30:17.014Z,33.20
2018-11-27T18:32:45.931Z,33.13
2018-11-27T18:35:17.821Z,35.73
2018-11-27T18:37:47.272Z,36.63
2018-11-27T18:40:16.631Z,32.37
2018-11-27T18:42:45.832Z,29.87
2018-11-27T18:45:26.399Z,34.83
2018-11-27T18:47:55.336Z,40.77
2018-11-27T18:50:25.533Z,31.93
2018-11-27T18:52:54.292Z,32.47
2018-11-27T18:55:23.287Z,32.63
2018-11-27T18:57:52.735Z,38.80
2018-11-27T19:00:23.715Z,40.10
2018-11-27T19:02:52.885Z,39.83
2018-11-27T19:05:21.959Z,43.60
2018-11-27T19:07:51.085Z,39.87
2018-11-27T19:10:22.456Z,34.33
2018-11-27T19:12:51.730Z,42.33
2018-11-27T19:15:28.070Z,35.97
2018-11-27T19:17:59.910Z,33.90
2018-11-27T19:20:28.882Z,35.33
2018-11-27T19:22:57.637Z,33.50
2018-11-27T19:25:26.516Z,39.40
2018-11-27T19:27:55.860Z,33.57
2018-11-27T19:30:24.925Z,31.40
2018-11-27T19:32:54.235Z,35.50
2018-11-27T19:35:25.449Z,29.60
2018-11-27T19:37:52.700Z,35.33
2018-11-27T19:40:22.290Z,39.07
2018-11-27T19:42:51.054Z,42.23
2018-11-27T19:45:26.490Z,40.20
2018-11-27T19:47:55.981Z,35.67
2018-11-27T19:50:24.718Z,39.27
2018-11-27T19:52:54.768Z,40.97
2018-11-27T19:55:23.833Z,39.17
2018-11-27T19:57:52.894Z,41.10
2018-11-27T20:00:29.125Z,36.53
2018-11-27T20:02:57.967Z,39.50
2018-11-27T20:05:28.069Z,39.80
2018-11-27T20:07:56.940Z,37.63
2018-11-27T20:10:25.901Z,39.50
2018-11-27T20:12:54.546Z,33.57
2018-11-27T20:15:26.006Z,34.87
2018-11-27T20:17:55.193Z,31.93
2018-11-27T20:20:25.180Z,33.97
2018-11-27T20:22:54.710Z,34.47
2018-11-27T20:25:24.074Z,36.07
2018-11-27T20:27:53.176Z,41.03
2018-11-27T20:30:24.816Z,45.03
2018-11-27T20:32:59.649Z,47.43
2018-11-27T20:35:28.929Z,45.33
2018-11-27T20:37:58.610Z,35.97
2018-11-27T20:40:27.645Z,34.33
2018-11-27T20:42:56.339Z,38.23
2018-11-27T20:45:26.117Z,37.57
2018-11-27T20:47:58.399Z,36.33
2018-11-27T20:50:27.450Z,33.37
2018-11-27T20:52:56.119Z,35.27
2018-11-27T20:55:25.264Z,29.73
2018-11-27T20:57:58.571Z,31.50
2018-11-27T21:00:30.966Z,32.63
2018-11-27T21:03:00.929Z,31.80
2018-11-27T21:05:29.530Z,32.13
2018-11-27T21:07:58.459Z,32.37
2018-11-27T21:10:27.058Z,31.77
2018-11-27T21:12:55.846Z,32.83
2018-11-27T21:15:25.070Z,38.73
2018-11-27T21:17:53.799Z,31.23
2018-11-27T21:20:22.634Z,35.90
2018-11-27T21:22:51.493Z,33.03
2018-11-27T21:25:23.412Z,32.13
2018-11-27T21:27:54.718Z,31.43
2018-11-27T21:30:23.684Z,32.00
2018-11-27T21:32:52.491Z,29.10
2018-11-27T21:35:21.590Z,31.80
2018-11-27T21:37:50.414Z,33.93
2018-11-27T21:40:19.680Z,31.23
2018-11-27T21:42:48.450Z,36.30
2018-11-27T21:45:21.539Z,30.63
2018-11-27T21:47:50.775Z,30.50
2018-11-27T21:50:25.714Z,32.93
2018-11-27T21:52:54.456Z,32.63
2018-11-27T21:55:23.433Z,33.37
2018-11-27T21:57:52.237Z,33.27
2018-11-27T22:00:22.053Z,34.47
2018-11-27T22:02:51.030Z,35.83
2018-11-27T22:05:20.067Z,31.47
2018-11-27T22:07:49.070Z,32.73
2018-11-27T22:10:19.215Z,36.37
2018-11-27T22:12:49.196Z,36.07
2018-11-27T22:15:19.455Z,31.07
2018-11-27T22:17:48.080Z,27.40
2018-11-27T22:20:21.244Z,31.23
2018-11-27T22:22:45.759Z,35.50
2018-11-27T22:25:14.879Z,41.87
2018-11-27T22:27:43.735Z,36.70
2018-11-27T22:30:15.920Z,34.70
2018-11-27T22:32:45.935Z,40.73
2018-11-27T22:35:14.546Z,34.97
2018-11-27T22:37:43.383Z,35.40
2018-11-27T22:40:13.383Z,33.90
2018-11-27T22:42:42.192Z,38.33
2018-11-27T22:45:12.379Z,36.70
2018-11-27T22:47:40.988Z,40.80
2018-11-27T22:50:13.065Z,31.87
2018-11-27T22:52:41.901Z,39.93
2018-11-27T22:55:10.971Z,36.97
2018-11-27T22:57:39.919Z,39.73
2018-11-27T23:00:32.277Z,35.70
2018-11-27T23:03:01.143Z,38.67
2018-11-27T23:05:30.216Z,38.27
2018-11-27T23:07:59.025Z,35.43
2018-11-27T23:10:29.611Z,39.70
2018-11-27T23:12:58.463Z,34.80
2018-11-27T23:15:27.040Z,34.77
2018-11-27T23:17:55.933Z,37.80
2018-11-27T23:20:24.610Z,41.23
2018-11-27T23:22:53.378Z,33.13
2018-11-27T23:25:22.348Z,41.27
2018-11-27T23:27:51.244Z,36.87
2018-11-27T23:30:21.456Z,40.63
2018-11-27T23:32:50.678Z,37.70
2018-11-27T23:35:19.418Z,36.13
2018-11-27T23:37:48.464Z,38.13
2018-11-27T23:40:18.424Z,40.23
2018-11-27T23:42:47.618Z,34.77
2018-11-27T23:45:22.223Z,36.30
2018-11-27T23:47:51.037Z,35.77
2018-11-27T23:50:20.898Z,31.93
2018-11-27T23:52:50.260Z,40.67
2018-11-27T23:55:20.039Z,36.83
2018-11-27T23:57:49.357Z,37.63
